Time;durP1;ratioP1;P1;durP2;ratioP2;P2;SDS_P1;SDS_P2;PMS_P1;PMS_P2;Temp;Humidity;BMP_temperature;BMP_pressure;BME280_temperature;BME280_humidity;BME280_pressure;Samples;Min_cycle;Max_cycle;Signal;HPM_P1;HPM_P2
2022/01/08 00:04:09;;;;;;;12.07;3.63;;;;;;;2.44;96.92;101051.41;10100084;29;20097;-77
2022/01/08 00:09:09;;;;;;;11.18;3.45;;;;;;;2.35;97.03;101057.59;10100620;29;20071;-77
2022/01/08 00:14:11;;;;;;;9.23;2.55;;;;;;;2.43;98.52;101060.41;10098121;29;20393;-76
2022/01/08 00:19:11;;;;;;;14.38;3.10;;;;;;;2.44;97.71;101066.59;10099215;29;20133;-77
2022/01/08 00:24:11;;;;;;;7.07;3.50;;;;;;;2.32;96.98;101066.72;10082943;29;20037;-76
2022/01/08 00:29:12;;;;;;;2.28;2.08;;;;;;;2.33;96.89;101073.78;10098897;29;20540;-76
2022/01/08 00:34:12;;;;;;;6.45;2.88;;;;;;;2.40;97.22;101063.38;10082056;29;20045;-77
2022/01/08 00:39:12;;;;;;;5.85;2.70;;;;;;;2.45;98.12;101057.59;10099218;29;20075;-77
2022/01/08 00:44:16;;;;;;;5.85;2.03;;;;;;;2.39;97.53;101055.47;10081741;29;20477;-76
2022/01/08 00:49:16;;;;;;;6.38;3.80;;;;;;;2.41;97.80;101057.03;10082612;29;20037;-77
2022/01/08 00:54:16;;;;;;;2.38;2.10;;;;;;;2.48;98.40;101068.84;10098103;29;20037;-76
2022/01/08 00:59:17;;;;;;;8.60;2.83;;;;;;;2.49;98.15;101073.22;10081622;29;20378;-76
2022/01/08 01:04:17;;;;;;;11.30;3.30;;;;;;;2.46;98.31;101084.19;10096808;29;20076;-76
2022/01/08 01:09:18;;;;;;;12.52;3.03;;;;;;;2.54;99.12;101078.13;10098396;29;20044;-76
2022/01/08 01:14:18;;;;;;;5.00;3.60;;;;;;;2.49;97.89;101077.69;10085333;29;20481;-76
2022/01/08 01:19:19;;;;;;;12.43;7.95;;;;;;;2.38;96.66;101076.00;10088732;29;20041;-76
2022/01/08 01:24:22;;;;;;;17.20;5.30;;;;;;;2.41;98.50;101081.06;10101702;29;20037;-76
2022/01/08 01:29:35;;;;;;;4.13;2.33;;;;;;;2.44;97.70;101079.97;10065901;29;20491;-76
2022/01/08 01:50:32;;;;;;;20.58;4.20;;;;;;;3.09;100.00;101091.72;10096437;29;20045;-75
2022/01/08 01:55:34;;;;;;;8.15;3.05;;;;;;;3.23;100.00;101104.66;10097158;29;20469;-76
2022/01/08 02:00:34;;;;;;;3.42;3.00;;;;;;;3.44;100.00;101108.94;10080701;29;20081;-76
2022/01/08 02:05:34;;;;;;;5.00;3.03;;;;;;;3.38;100.00;101113.06;10096921;29;20526;-76
2022/01/08 02:10:35;;;;;;;7.00;3.58;;;;;;;3.21;99.97;101113.81;10102566;29;20076;-76
2022/01/08 02:15:36;;;;;;;16.42;3.58;;;;;;;3.11;99.54;101112.97;10109901;29;20586;-76
2022/01/08 02:20:37;;;;;;;10.05;2.67;;;;;;;3.00;98.90;101100.63;10093420;29;20033;-75
2022/01/08 02:25:37;;;;;;;3.20;2.80;;;;;;;3.03;100.00;101103.84;10103368;29;20045;-76
2022/01/08 02:30:37;;;;;;;7.25;3.33;;;;;;;3.17;100.00;101104.38;10103205;29;20061;-76
2022/01/08 02:35:38;;;;;;;8.27;2.92;;;;;;;3.19;100.00;101097.03;10104162;29;20052;-77
2022/01/08 02:40:38;;;;;;;12.85;3.05;;;;;;;2.95;98.65;101097.53;10103415;29;20068;-76
2022/01/08 02:45:39;;;;;;;7.93;2.85;;;;;;;2.76;98.35;101106.41;10103802;29;20037;-77
2022/01/08 02:50:39;;;;;;;9.77;3.30;;;;;;;2.70;98.67;101093.59;10104198;29;20044;-76
2022/01/08 02:55:39;;;;;;;7.10;3.30;;;;;;;2.73;99.74;101091.47;10101769;29;20120;-76
2022/01/08 03:00:40;;;;;;;17.90;2.97;;;;;;;2.86;100.00;101088.50;10084740;29;20502;-76
2022/01/08 03:05:41;;;;;;;9.23;2.42;;;;;;;2.83;99.83;101075.44;10101275;29;20068;-75
2022/01/08 03:10:41;;;;;;;4.93;3.70;;;;;;;2.88;100.00;101083.03;10102174;29;20033;-76
2022/01/08 03:15:42;;;;;;;3.67;2.38;;;;;;;2.88;99.66;101086.56;10099778;29;20488;-76
2022/01/08 03:20:48;;;;;;;6.38;2.88;;;;;;;2.95;100.00;101098.34;10099371;29;20097;-76
2022/01/08 03:25:49;;;;;;;6.60;3.53;;;;;;;3.01;100.00;101088.94;10086274;29;20037;-77
2022/01/08 03:30:49;;;;;;;11.93;3.70;;;;;;;3.00;100.00;101088.09;10101443;29;20346;-76
2022/01/08 03:35:49;;;;;;;11.77;3.47;;;;;;;2.76;99.00;101083.19;10084116;29;20047;-76
2022/01/08 03:40:50;;;;;;;7.80;2.85;;;;;;;2.60;98.73;101085.59;10070153;29;20033;-76
2022/01/08 03:45:51;;;;;;;18.67;3.70;;;;;;;2.46;98.08;101091.38;10100336;29;20469;-76
2022/01/08 03:50:51;;;;;;;13.65;3.53;;;;;;;2.40;98.55;101087.41;10101226;29;20037;-76
2022/01/08 03:55:52;;;;;;;6.57;3.08;;;;;;;2.40;98.85;101075.88;10099440;29;20048;-76
2022/01/08 04:00:52;;;;;;;5.82;3.08;;;;;;;2.39;97.93;101072.34;10100837;29;20092;-76
2022/01/08 04:05:53;;;;;;;9.10;2.95;;;;;;;2.31;98.42;101082.91;10099680;29;20071;-76
2022/01/08 04:10:54;;;;;;;12.05;3.88;;;;;;;2.30;98.15;101082.06;10083576;29;20045;-76
2022/01/08 04:16:00;;;;;;;8.80;3.17;;;;;;;2.28;98.09;101088.53;10098865;29;20088;-76
2022/01/08 04:26:23;;;;;;;10.10;3.78;;;;;;;2.24;98.07;101098.66;10098523;29;20033;-76
2022/01/08 04:31:24;;;;;;;12.23;2.60;;;;;;;2.22;97.94;101102.44;10098213;29;20045;-76
2022/01/08 04:36:24;;;;;;;3.33;2.65;;;;;;;2.25;98.65;101111.03;10098788;29;20537;-76
2022/01/08 04:41:24;;;;;;;4.85;2.42;;;;;;;2.33;98.97;101115.69;10104692;29;20052;-76
2022/01/08 04:46:25;;;;;;;12.10;2.63;;;;;;;2.36;99.24;101117.22;10105054;29;20076;-76
2022/01/08 04:51:25;;;;;;;4.68;2.33;;;;;;;2.35;98.44;101116.38;10105034;29;20049;-76
2022/01/08 04:56:26;;;;;;;7.95;2.95;;;;;;;2.34;98.58;101114.69;10108543;29;20057;-76
2022/01/08 05:01:26;;;;;;;6.82;2.60;;;;;;;2.30;98.54;101097.25;10108148;29;20434;-76
2022/01/08 05:06:26;;;;;;;8.55;3.53;;;;;;;2.31;98.60;101101.63;10101172;29;20033;-76
2022/01/08 05:11:27;;;;;;;15.43;3.50;;;;;;;2.29;99.17;101104.41;10081896;29;20048;-76
2022/01/08 05:16:29;;;;;;;13.77;3.20;;;;;;;2.34;99.84;101106.69;10097693;29;20061;-76
2022/01/08 05:21:32;;;;;;;9.82;3.28;;;;;;;2.40;100.00;101116.81;10081283;29;20056;-76
2022/01/08 05:26:33;;;;;;;5.38;3.50;;;;;;;2.49;100.00;101124.00;10098106;29;20040;-76
2022/01/08 05:31:33;;;;;;;9.27;3.10;;;;;;;2.55;100.00;101111.88;10098742;29;20045;-76
2022/01/08 05:36:33;;;;;;;4.75;3.50;;;;;;;2.59;100.00;101137.38;10080965;29;20057;-76
2022/01/08 05:41:34;;;;;;;24.52;4.47;;;;;;;2.63;100.00;101137.94;10098106;29;20047;-76
2022/01/08 05:46:34;;;;;;;10.00;4.18;;;;;;;2.70;100.00;101133.72;10103148;29;20124;-76
2022/01/08 05:51:35;;;;;;;15.57;4.32;;;;;;;2.72;100.00;101124.56;10104662;29;20033;-76
2022/01/08 05:56:35;;;;;;;10.68;3.80;;;;;;;2.72;100.00;101121.91;10104370;29;20077;-76
2022/01/08 06:01:35;;;;;;;7.55;3.35;;;;;;;2.70;100.00;101117.66;10088847;29;20037;-76
2022/01/08 06:06:39;;;;;;;23.30;4.10;;;;;;;2.70;100.00;101109.66;10088646;29;20063;-76
2022/01/08 06:11:39;;;;;;;10.07;3.65;;;;;;;2.58;99.43;101113.44;10102379;29;20044;-76
2022/01/08 06:16:41;;;;;;;8.13;3.58;;;;;;;2.46;99.16;101110.91;10103701;29;20068;-76
2022/01/08 06:21:41;;;;;;;9.07;2.75;;;;;;;2.40;99.03;101100.78;10104140;29;20370;-76
2022/01/08 06:26:42;;;;;;;3.70;3.40;;;;;;;2.30;99.33;101091.91;10087179;29;20550;-76
2022/01/08 06:31:42;;;;;;;13.18;3.72;;;;;;;2.17;98.98;101094.84;10085977;29;20119;-76
2022/01/08 06:36:43;;;;;;;10.32;2.65;;;;;;;2.14;100.00;101100.47;10086429;29;20041;-76
2022/01/08 06:41:43;;;;;;;14.65;4.90;;;;;;;2.15;100.00;101087.94;10103976;29;20426;-76
2022/01/08 06:46:43;;;;;;;9.55;3.17;;;;;;;2.18;100.00;101083.19;10102505;29;20113;-76
2022/01/08 06:51:44;;;;;;;15.63;3.40;;;;;;;2.26;100.00;101083.31;10101073;29;20041;-76
2022/01/08 06:56:44;;;;;;;5.38;3.38;;;;;;;2.29;100.00;101077.69;10070236;29;20483;-76
2022/01/08 07:01:45;;;;;;;16.48;3.80;;;;;;;2.55;100.00;101078.00;10099701;29;20097;-76
2022/01/08 07:06:45;;;;;;;6.32;2.85;;;;;;;2.68;100.00;101076.84;10101644;29;20041;-76
2022/01/08 07:11:45;;;;;;;10.25;2.72;;;;;;;2.87;100.00;101066.16;10101750;29;20060;-76
2022/01/08 07:16:48;;;;;;;3.67;2.90;;;;;;;3.01;100.00;101060.34;10100250;29;20041;-76
2022/01/08 07:21:48;;;;;;;9.35;3.17;;;;;;;3.08;100.00;101060.59;10085004;29;20076;-76
2022/01/08 07:26:48;;;;;;;10.98;3.40;;;;;;;3.10;100.00;101053.28;10101160;29;20473;-76
2022/01/08 07:31:49;;;;;;;20.77;3.47;;;;;;;3.10;100.00;101047.09;10107609;29;20112;-76
2022/01/08 07:36:49;;;;;;;4.68;2.42;;;;;;;3.10;100.00;101055.13;10088266;29;20478;-75
2022/01/08 07:41:49;;;;;;;8.82;3.30;;;;;;;3.12;100.00;101051.28;10085665;29;20045;-76
2022/01/08 07:46:50;;;;;;;9.75;4.50;;;;;;;3.13;100.00;101047.63;10098773;29;20072;-75
2022/01/08 07:51:50;;;;;;;7.32;3.22;;;;;;;3.23;100.00;101044.94;10099766;29;20048;-75
2022/01/08 07:56:51;;;;;;;3.97;3.38;;;;;;;3.37;100.00;101043.59;10100143;29;20492;-75
2022/01/08 08:01:51;;;;;;;11.07;3.83;;;;;;;3.31;100.00;101034.31;10098758;29;20044;-75
2022/01/08 08:06:51;;;;;;;7.78;2.92;;;;;;;3.38;100.00;101016.69;10098621;29;20033;-75
2022/01/08 08:11:52;;;;;;;5.70;2.72;;;;;;;3.36;100.00;101025.88;10083139;29;20124;-75
2022/01/08 08:16:52;;;;;;;8.50;3.53;;;;;;;3.37;100.00;101011.47;10082946;29;20040;-75
2022/01/08 08:21:53;;;;;;;6.53;3.35;;;;;;;3.35;100.00;101011.66;10068620;29;20060;-75
2022/01/08 08:26:53;;;;;;;6.40;4.15;;;;;;;3.29;100.00;101014.91;10098015;29;20587;-75
2022/01/08 08:31:53;;;;;;;5.63;2.78;;;;;;;3.33;100.00;100992.19;10084099;29;20049;-74
2022/01/08 08:36:54;;;;;;;8.15;3.63;;;;;;;3.36;100.00;100997.25;10088131;29;20033;-75
2022/01/08 08:41:54;;;;;;;10.40;4.25;;;;;;;3.37;100.00;100993.59;10106148;29;20045;-76
2022/01/08 08:46:55;;;;;;;13.18;4.20;;;;;;;3.41;100.00;100988.78;10100477;29;20496;-75
2022/01/08 08:51:55;;;;;;;11.18;4.50;;;;;;;3.37;100.00;100987.38;10082253;29;20097;-74
2022/01/08 08:56:55;;;;;;;5.97;4.03;;;;;;;3.33;100.00;100978.81;10098037;29;20053;-74
2022/01/08 09:01:56;;;;;;;23.27;7.38;;;;;;;3.42;100.00;100975.25;10081748;29;20060;-75
2022/01/08 09:06:57;;;;;;;8.98;6.45;;;;;;;3.49;100.00;100973.66;10098999;29;20112;-74
2022/01/08 09:11:57;;;;;;;11.55;7.72;;;;;;;3.43;100.00;100944.81;10081486;29;20566;-74
2022/01/08 09:17:02;;;;;;;9.45;6.38;;;;;;;3.53;100.00;100909.09;10098494;29;20080;-74
2022/01/08 09:22:04;;;;;;;10.80;7.10;;;;;;;3.47;100.00;100921.25;10088411;29;20045;-74
2022/01/08 09:27:04;;;;;;;11.55;7.90;;;;;;;3.52;100.00;100915.47;10088199;29;20123;-75
2022/01/08 09:32:06;;;;;;;8.02;7.10;;;;;;;3.56;100.00;100909.63;10104829;29;20137;-74
2022/01/08 09:37:06;;;;;;;8.77;7.43;;;;;;;3.57;100.00;100907.78;10105189;29;20056;-74
2022/01/08 09:42:10;;;;;;;5.82;5.32;;;;;;;3.69;100.00;100894.03;10104971;29;20458;-74
2022/01/08 09:47:13;;;;;;;4.55;4.20;;;;;;;3.72;100.00;100883.00;10088103;29;20033;-74
2022/01/08 09:52:14;;;;;;;8.63;6.45;;;;;;;3.85;100.00;100871.06;10089187;29;20036;-74
2022/01/08 09:57:14;;;;;;;12.13;6.10;;;;;;;3.81;100.00;100861.66;10104667;29;20049;-74
2022/01/08 10:02:19;;;;;;;5.78;4.45;;;;;;;3.89;100.00;100849.19;10088111;29;20105;-74
2022/01/08 10:07:23;;;;;;;12.25;6.13;;;;;;;4.00;100.00;100831.19;10077349;29;20197;-73
2022/01/08 10:12:42;;;;;;;5.88;5.25;;;;;;;4.09;100.00;100812.31;10107193;29;20097;-73
2022/01/08 10:17:44;;;;;;;12.65;5.30;;;;;;;4.21;100.00;100788.75;10089772;29;20044;-74
2022/01/08 10:22:44;;;;;;;10.43;4.75;;;;;;;4.29;100.00;100769.22;10087703;29;20053;-74
2022/01/08 10:27:44;;;;;;;5.38;3.92;;;;;;;4.34;100.00;100756.16;10086403;29;20537;-74
2022/01/08 10:32:57;;;;;;;12.65;3.55;;;;;;;4.59;100.00;100752.56;10103076;29;20092;-74
2022/01/08 10:37:58;;;;;;;3.08;2.80;;;;;;;4.63;100.00;100735.19;10086749;29;20115;-74
2022/01/08 10:42:59;;;;;;;4.20;2.88;;;;;;;4.78;100.00;100716.59;10085843;29;20119;-74
2022/01/08 10:48:03;;;;;;;4.32;2.83;;;;;;;4.77;100.00;100693.47;10102547;29;20029;-74
2022/01/08 10:53:04;;;;;;;3.83;2.90;;;;;;;4.88;100.00;100690.47;10103579;29;20481;-74
2022/01/08 10:58:04;;;;;;;4.05;2.88;;;;;;;4.97;100.00;100667.16;10101632;29;20085;-74
2022/01/08 11:03:05;;;;;;;7.90;2.22;;;;;;;5.08;100.00;100648.03;10101921;29;20358;-74
2022/01/08 11:08:13;;;;;;;14.25;4.28;;;;;;;5.06;100.00;100635.78;10101201;29;20060;-74
2022/01/08 11:13:16;;;;;;;8.45;3.63;;;;;;;4.98;100.00;100617.84;10101840;29;20041;-74
2022/01/08 11:18:17;;;;;;;5.10;3.65;;;;;;;4.81;100.00;100597.38;10100354;29;20037;-73
2022/01/08 11:23:20;;;;;;;10.98;4.22;;;;;;;4.58;100.00;100592.69;10100264;29;20068;-73
2022/01/08 11:28:20;;;;;;;5.10;3.92;;;;;;;4.48;100.00;100588.50;10101195;29;20025;-73
2022/01/08 11:38:22;;;;;;;6.05;4.10;;;;;;;4.35;100.00;100568.34;10100944;29;20041;-74
2022/01/08 11:43:24;;;;;;;5.93;4.03;;;;;;;4.29;100.00;100534.16;10099418;29;20116;-74
2022/01/08 11:48:37;;;;;;;8.93;3.95;;;;;;;4.24;100.00;100508.84;10101100;29;20029;-74
2022/01/08 11:53:48;;;;;;;3.40;2.80;;;;;;;4.13;100.00;100485.91;10066720;29;20061;-74
2022/01/08 11:59:23;;;;;;;4.18;3.42;;;;;;;3.89;100.00;100459.91;10083289;29;20053;-75
2022/01/08 12:04:28;;;;;;;8.13;4.20;;;;;;;3.71;100.00;100442.16;10073027;29;20052;-75
2022/01/08 12:09:30;;;;;;;3.88;3.33;;;;;;;3.62;100.00;100419.03;10082176;29;20482;-75
2022/01/08 12:14:36;;;;;;;7.53;3.45;;;;;;;3.55;100.00;100395.78;10085044;29;20040;-76
2022/01/08 12:19:38;;;;;;;2.95;2.53;;;;;;;3.52;100.00;100380.03;10107792;29;20033;-75
2022/01/08 12:24:38;;;;;;;6.93;3.10;;;;;;;3.38;100.00;100374.31;10106099;29;20052;-75
2022/01/08 12:29:40;;;;;;;5.78;4.13;;;;;;;3.32;100.00;100336.66;10099338;29;20040;-75
2022/01/08 12:34:47;;;;;;;6.07;4.28;;;;;;;3.30;100.00;100339.50;10081924;29;20104;-76
2022/01/08 12:39:49;;;;;;;7.55;4.53;;;;;;;3.35;100.00;100307.75;10100798;29;20041;-76
2022/01/08 12:45:12;;;;;;;10.02;4.78;;;;;;;3.32;100.00;100288.47;10112541;29;20511;-76
2022/01/08 12:50:24;;;;;;;6.75;5.30;;;;;;;3.26;100.00;100277.44;10100654;29;20068;-78
2022/01/08 12:55:25;;;;;;;7.20;5.95;;;;;;;3.22;100.00;100262.75;10103785;29;20033;-79
2022/01/08 13:00:28;;;;;;;9.27;7.38;;;;;;;3.21;100.00;100249.50;10003737;29;20060;-77
2022/01/08 13:05:32;;;;;;;6.63;5.78;;;;;;;3.20;100.00;100231.78;10083700;29;20057;-80
2022/01/08 13:10:33;;;;;;;10.70;8.68;;;;;;;3.23;100.00;100191.34;10078234;29;20047;-82
2022/01/08 13:15:33;;;;;;;8.32;7.28;;;;;;;3.25;100.00;100182.13;10121846;29;20052;-79
2022/01/08 13:20:34;;;;;;;9.20;5.57;;;;;;;3.28;100.00;100153.34;10115208;29;20456;-82
2022/01/08 13:25:34;;;;;;;7.00;5.68;;;;;;;3.24;100.00;100139.47;10078948;29;20096;-79
2022/01/08 13:30:36;;;;;;;8.18;7.45;;;;;;;3.22;100.00;100112.03;10098149;29;20048;-80
2022/01/08 13:35:37;;;;;;;7.78;7.18;;;;;;;3.21;100.00;100100.50;10088246;29;20045;-79
2022/01/08 13:40:38;;;;;;;8.90;7.50;;;;;;;3.33;100.00;100060.88;10099463;29;20041;-80
2022/01/08 13:45:41;;;;;;;8.95;8.05;;;;;;;3.31;100.00;100054.84;10094185;29;20512;-81
2022/01/08 13:50:47;;;;;;;11.00;8.82;;;;;;;3.42;100.00;100033.06;10093283;29;20385;-81
2022/01/08 13:55:48;;;;;;;9.32;8.32;;;;;;;3.52;100.00;100016.00;10087161;29;20033;-81
2022/01/08 14:00:53;;;;;;;11.13;8.93;;;;;;;3.65;100.00;100000.19;10101491;29;20493;-81
2022/01/08 14:05:55;;;;;;;11.23;10.10;;;;;;;3.77;100.00;99989.94;10105841;29;20033;-79
2022/01/08 14:10:57;;;;;;;9.23;7.57;;;;;;;3.80;100.00;99990.41;10105161;29;20120;-80
2022/01/08 14:16:15;;;;;;;9.05;8.23;;;;;;;3.80;100.00;99955.59;10109199;29;20044;-80
2022/01/08 14:21:17;;;;;;;10.68;9.57;;;;;;;3.84;100.00;99931.97;10108930;29;20059;-79
2022/01/08 14:26:26;;;;;;;10.48;9.48;;;;;;;3.93;100.00;99915.66;10074792;29;20389;-80
2022/01/08 14:31:30;;;;;;;11.18;7.90;;;;;;;3.94;100.00;99897.75;10103626;29;20041;-80
2022/01/08 14:36:40;;;;;;;12.52;9.07;;;;;;;3.91;100.00;99864.13;10091037;29;20037;-81
2022/01/08 14:41:45;;;;;;;11.40;10.30;;;;;;;3.93;100.00;99855.91;10103136;29;20068;-82
2022/01/08 14:46:47;;;;;;;10.73;9.63;;;;;;;4.00;100.00;99839.94;10088596;29;20481;-80
2022/01/08 14:51:48;;;;;;;12.45;9.25;;;;;;;4.07;100.00;99830.19;10074893;29;20081;-79
2022/01/08 14:56:48;;;;;;;13.38;10.27;;;;;;;4.16;100.00;99804.97;10089246;29;20181;-80
2022/01/08 15:01:49;;;;;;;9.73;8.75;;;;;;;4.26;100.00;99783.25;10116105;29;20033;-81
2022/01/08 15:06:51;;;;;;;11.27;9.55;;;;;;;4.28;100.00;99757.94;10121699;29;20466;-80
2022/01/08 15:11:52;;;;;;;12.02;10.73;;;;;;;4.37;100.00;99734.56;10114562;29;20112;-81
2022/01/08 15:16:52;;;;;;;16.48;11.07;;;;;;;4.42;100.00;99702.66;10119622;29;20076;-80
2022/01/08 15:21:53;;;;;;;15.27;11.27;;;;;;;4.45;100.00;99693.44;10103778;29;20056;-80
2022/01/08 15:26:55;;;;;;;13.10;11.88;;;;;;;4.49;100.00;99670.59;10102914;29;20046;-78
2022/01/08 15:31:56;;;;;;;16.23;14.13;;;;;;;4.52;100.00;99665.66;10092684;29;20041;-78
2022/01/08 15:36:56;;;;;;;17.77;15.60;;;;;;;4.58;100.00;99648.84;10087508;29;20037;-80
2022/01/08 15:41:57;;;;;;;21.02;14.60;;;;;;;4.57;100.00;99627.59;10094809;29;20068;-80
2022/01/08 15:46:57;;;;;;;20.02;13.13;;;;;;;4.63;100.00;99600.00;10122791;29;20036;-80
2022/01/08 15:51:57;;;;;;;19.27;15.05;;;;;;;4.69;100.00;99596.56;10138419;29;20041;-80
2022/01/08 15:56:58;;;;;;;12.48;11.25;;;;;;;4.74;100.00;99553.91;10140808;29;20049;-80
2022/01/08 16:01:58;;;;;;;15.52;14.05;;;;;;;4.77;100.00;99548.16;10145209;29;20044;-80
2022/01/08 16:07:01;;;;;;;19.98;15.00;;;;;;;4.78;100.00;99525.66;10126448;29;20462;-80
2022/01/08 16:12:02;;;;;;;14.18;12.88;;;;;;;4.87;100.00;99500.38;10125537;29;20047;-79
2022/01/08 16:17:03;;;;;;;11.60;10.52;;;;;;;4.96;100.00;99492.19;10139522;29;20048;-80
2022/01/08 16:22:03;;;;;;;16.75;14.23;;;;;;;5.05;100.00;99473.06;10139225;29;20465;-80
2022/01/08 16:27:05;;;;;;;17.67;13.88;;;;;;;5.11;100.00;99453.50;10140062;29;20045;-79
2022/01/08 16:32:06;;;;;;;18.05;12.35;;;;;;;5.24;100.00;99420.53;10123275;29;20036;-79
2022/01/08 16:37:07;;;;;;;9.70;8.77;;;;;;;5.34;100.00;99407.56;10127398;29;20027;-81
2022/01/08 16:42:08;;;;;;;10.63;9.05;;;;;;;5.41;100.00;99391.47;10143813;29;20045;-79
2022/01/08 16:47:08;;;;;;;10.40;8.38;;;;;;;5.53;100.00;99372.94;10144061;29;20037;-80
2022/01/08 16:52:09;;;;;;;12.57;9.90;;;;;;;5.57;100.00;99348.16;10141823;29;20029;-79
2022/01/08 16:57:09;;;;;;;38.97;8.63;;;;;;;5.60;100.00;99315.53;10139289;29;20076;-80
2022/01/08 17:02:10;;;;;;;12.35;9.32;;;;;;;5.67;100.00;99320.09;10123192;29;20029;-79
2022/01/08 17:07:10;;;;;;;11.68;8.07;;;;;;;5.74;100.00;99310.16;10134889;29;20037;-79
2022/01/08 17:12:13;;;;;;;8.85;7.65;;;;;;;5.79;100.00;99297.78;10132487;29;20041;-79
2022/01/08 17:17:13;;;;;;;10.00;8.65;;;;;;;5.83;100.00;99292.81;10110471;29;20033;-80
2022/01/08 17:22:14;;;;;;;12.68;6.82;;;;;;;5.85;100.00;99274.66;10087723;29;20041;-80
2022/01/08 17:27:16;;;;;;;18.65;7.55;;;;;;;5.93;100.00;99266.41;10085187;29;20037;-81
2022/01/08 17:32:16;;;;;;;7.68;6.85;;;;;;;5.98;100.00;99261.25;10100161;29;20067;-79
2022/01/08 17:37:17;;;;;;;6.13;5.60;;;;;;;6.07;100.00;99239.53;10082001;29;20061;-79
2022/01/08 17:42:17;;;;;;;7.90;6.82;;;;;;;6.07;100.00;99224.25;10107627;29;20037;-80
2022/01/08 17:47:18;;;;;;;12.80;7.53;;;;;;;6.10;100.00;99188.06;10110624;29;20037;-79
2022/01/08 17:52:19;;;;;;;7.80;6.15;;;;;;;6.11;100.00;99187.84;10122925;29;20056;-79
2022/01/08 17:57:19;;;;;;;8.23;7.53;;;;;;;6.17;100.00;99188.88;10110872;29;20089;-78
2022/01/08 18:02:20;;;;;;;8.85;7.43;;;;;;;6.21;100.00;99188.22;10088010;29;20449;-78
2022/01/08 18:07:20;;;;;;;10.75;6.13;;;;;;;6.22;100.00;99179.13;10087768;29;20072;-80
2022/01/08 18:12:20;;;;;;;8.55;6.13;;;;;;;6.26;100.00;99184.91;10105404;29;20047;-79
2022/01/08 18:17:22;;;;;;;8.38;5.72;;;;;;;6.33;100.00;99174.97;10103549;29;20069;-79
2022/01/08 18:22:23;;;;;;;10.20;7.32;;;;;;;6.27;100.00;99148.91;10104538;29;20115;-79
2022/01/08 18:27:23;;;;;;;5.35;4.38;;;;;;;6.29;100.00;99139.63;10087075;29;20116;-78
2022/01/08 18:32:24;;;;;;;6.63;5.30;;;;;;;6.32;100.00;99134.81;10070842;29;20409;-80
2022/01/08 18:37:25;;;;;;;6.72;5.78;;;;;;;6.31;100.00;99127.81;10086345;29;20037;-79
2022/01/08 18:42:26;;;;;;;7.55;6.30;;;;;;;6.31;100.00;99112.50;10103265;29;20037;-79
2022/01/08 18:47:26;;;;;;;6.22;4.40;;;;;;;6.31;100.00;99098.25;10104598;29;20041;-79
2022/01/08 18:52:27;;;;;;;8.63;5.60;;;;;;;6.29;100.00;99085.84;10102496;29;20065;-79
2022/01/08 18:57:27;;;;;;;9.77;5.75;;;;;;;6.37;100.00;99078.56;10085897;29;20057;-79
2022/01/08 19:02:27;;;;;;;5.55;5.10;;;;;;;6.32;100.00;99060.41;10102589;29;20044;-79
2022/01/08 19:07:28;;;;;;;7.47;5.78;;;;;;;6.37;100.00;99046.31;10085481;29;20033;-78
2022/01/08 19:12:28;;;;;;;8.52;7.43;;;;;;;6.36;100.00;99056.25;10101955;29;20069;-78
2022/01/08 19:17:28;;;;;;;4.88;4.45;;;;;;;6.33;100.00;99029.78;10102451;29;20384;-77
2022/01/08 19:22:32;;;;;;;8.82;6.43;;;;;;;6.44;100.00;99023.72;10102790;29;20120;-78
2022/01/08 19:27:33;;;;;;;9.48;6.50;;;;;;;6.45;100.00;98992.28;10085161;29;20088;-79
2022/01/08 19:32:33;;;;;;;7.43;6.75;;;;;;;6.45;100.00;98990.44;10101870;29;20442;-78
2022/01/08 19:37:34;;;;;;;8.60;7.70;;;;;;;6.46;100.00;98975.94;10101152;29;20500;-79
2022/01/08 19:42:34;;;;;;;7.22;6.63;;;;;;;6.46;100.00;98970.56;10085606;29;20052;-80
2022/01/08 19:47:34;;;;;;;6.32;5.72;;;;;;;6.47;100.00;98957.94;10084897;29;20530;-78
2022/01/08 19:52:35;;;;;;;12.48;7.95;;;;;;;6.52;100.00;98956.25;10102037;29;20041;-78
2022/01/08 19:57:35;;;;;;;9.43;6.50;;;;;;;6.55;100.00;98946.91;10111341;29;20459;-78
2022/01/08 20:02:36;;;;;;;6.57;5.95;;;;;;;6.55;100.00;98932.66;10113199;29;20054;-80
2022/01/08 20:07:37;;;;;;;9.30;8.45;;;;;;;6.53;100.00;98922.09;10103259;29;20117;-78
2022/01/08 20:12:37;;;;;;;9.82;8.68;;;;;;;6.61;100.00;98918.31;10100980;29;20025;-78
2022/01/08 20:17:38;;;;;;;9.52;8.55;;;;;;;6.56;100.00;98908.22;10101238;29;20068;-78
2022/01/08 20:22:38;;;;;;;11.27;8.88;;;;;;;6.61;100.00;98907.56;10101816;29;20132;-78
2022/01/08 20:27:40;;;;;;;18.60;10.77;;;;;;;6.64;100.00;98889.13;10101163;29;20120;-78
2022/01/08 20:32:40;;;;;;;11.90;10.45;;;;;;;6.66;100.00;98881.63;10099908;29;20041;-77
2022/01/08 20:37:41;;;;;;;15.95;12.70;;;;;;;6.75;100.00;98874.09;10081605;29;20041;-78
2022/01/08 20:42:42;;;;;;;14.50;11.70;;;;;;;6.76;100.00;98859.59;10100434;29;20045;-78
2022/01/08 20:47:43;;;;;;;12.88;10.48;;;;;;;6.79;100.00;98853.78;10100267;29;20377;-78
2022/01/08 20:52:44;;;;;;;9.88;8.88;;;;;;;6.86;100.00;98845.63;10081999;29;20045;-79
2022/01/08 20:57:44;;;;;;;11.98;8.80;;;;;;;6.86;100.00;98835.72;10097268;29;20053;-78
2022/01/08 21:02:44;;;;;;;11.23;9.32;;;;;;;6.85;100.00;98831.38;10100082;29;20041;-78
2022/01/08 21:07:45;;;;;;;6.88;6.30;;;;;;;6.88;100.00;98822.84;10097085;29;20037;-79
2022/01/08 21:12:45;;;;;;;10.60;8.98;;;;;;;6.84;100.00;98818.97;10096454;29;20520;-79
2022/01/08 21:17:46;;;;;;;12.02;8.77;;;;;;;6.85;100.00;98809.03;10097537;29;20044;-79
2022/01/08 21:22:46;;;;;;;7.97;6.82;;;;;;;6.85;100.00;98809.03;10098841;29;20037;-79
2022/01/08 21:27:47;;;;;;;12.23;10.07;;;;;;;6.87;100.00;98799.69;10081564;29;20388;-79
2022/01/08 21:32:47;;;;;;;21.27;13.13;;;;;;;6.90;100.00;98803.81;10098232;29;20041;-79
2022/01/08 21:37:53;;;;;;;14.48;13.02;;;;;;;6.99;100.00;98802.47;10097604;29;20052;-79
2022/01/08 21:42:54;;;;;;;9.48;6.60;;;;;;;6.88;100.00;98787.06;10081708;29;20068;-80
2022/01/08 21:47:54;;;;;;;22.52;16.77;;;;;;;6.95;100.00;98812.81;10096686;29;20041;-80
2022/01/08 21:52:55;;;;;;;27.15;16.73;;;;;;;7.04;100.00;98821.41;10065564;29;20033;-80
2022/01/08 21:57:56;;;;;;;14.10;11.52;;;;;;;7.07;100.00;98826.34;10079753;29;20079;-79
2022/01/08 22:02:56;;;;;;;14.18;11.23;;;;;;;7.05;100.00;98833.00;10096434;29;20037;-79
2022/01/08 22:07:57;;;;;;;9.68;8.35;;;;;;;6.93;100.00;98832.97;10097054;29;20124;-80
2022/01/08 22:12:57;;;;;;;2.85;2.53;;;;;;;6.75;100.00;98831.06;10080345;29;20112;-79
2022/01/08 22:18:00;;;;;;;7.00;3.38;;;;;;;6.76;100.00;98840.78;10080555;29;20037;-79
2022/01/08 22:23:01;;;;;;;11.43;4.05;;;;;;;6.78;100.00;98851.31;10096898;29;20554;-81
2022/01/08 22:28:02;;;;;;;20.83;8.80;;;;;;;6.62;100.00;98850.03;10103106;29;20128;-81
2022/01/08 22:33:03;;;;;;;36.53;8.63;;;;;;;6.65;100.00;98865.72;10103660;29;20041;-81
2022/01/08 22:38:03;;;;;;;36.67;10.05;;;;;;;6.65;100.00;98866.56;10086835;29;20081;-81
2022/01/08 22:43:04;;;;;;;44.65;9.85;;;;;;;6.64;100.00;98872.97;10102737;29;20044;-80
2022/01/08 22:48:04;;;;;;;31.98;12.88;;;;;;;6.65;100.00;98879.19;10103277;29;20045;-79
2022/01/08 22:53:06;;;;;;;36.15;10.18;;;;;;;6.59;100.00;98886.25;10104559;29;20033;-79
2022/01/08 22:58:09;;;;;;;29.70;11.15;;;;;;;6.60;100.00;98895.97;10115214;29;20056;-80
2022/01/08 23:03:09;;;;;;;36.35;8.57;;;;;;;6.58;100.00;98913.38;10107543;29;20037;-83
2022/01/08 23:08:10;;;;;;;55.05;11.77;;;;;;;6.50;100.00;98917.97;10103488;29;20477;-81
2022/01/08 23:13:10;;;;;;;53.53;13.10;;;;;;;6.51;100.00;98930.41;10086022;29;20163;-82
2022/01/08 23:18:11;;;;;;;39.65;10.98;;;;;;;6.46;100.00;98942.84;10100464;29;20045;-81
2022/01/08 23:23:14;;;;;;;36.25;12.18;;;;;;;6.40;100.00;98949.91;10085187;29;20033;-81
2022/01/08 23:28:15;;;;;;;36.65;10.35;;;;;;;6.38;100.00;98954.72;10086398;29;20037;-81
2022/01/08 23:33:15;;;;;;;36.97;10.52;;;;;;;6.34;100.00;98972.28;10086081;29;20033;-81